sensor_id;sensor_type;location;lat;lon;timestamp;P1;durP1;ratioP1;P2;durP2;ratioP2
69716;SDS011;67420;46.144;19.666;2023-08-07T00:07:24;0.45;;;0.38;;
69716;SDS011;67420;46.144;19.666;2023-08-07T00:17:27;1.25;;;0.45;;
69716;SDS011;67420;46.144;19.666;2023-08-07T00:27:29;0.50;;;0.40;;
69716;SDS011;67420;46.144;19.666;2023-08-07T00:37:32;0.40;;;0.40;;
69716;SDS011;67420;46.144;19.666;2023-08-07T00:47:34;0.47;;;0.22;;
69716;SDS011;67420;46.144;19.666;2023-08-07T00:57:36;0.30;;;0.30;;
69716;SDS011;67420;46.144;19.666;2023-08-07T01:07:38;0.60;;;0.30;;
69716;SDS011;67420;46.144;19.666;2023-08-07T01:17:41;0.15;;;0.15;;
69716;SDS011;67420;46.144;19.666;2023-08-07T01:27:46;0.30;;;0.30;;
69716;SDS011;67420;46.144;19.666;2023-08-07T01:37:56;0.28;;;0.28;;
69716;SDS011;67420;46.144;19.666;2023-08-07T01:48:00;0.40;;;0.20;;
69716;SDS011;67420;46.144;19.666;2023-08-07T01:58:02;0.28;;;0.28;;
69716;SDS011;67420;46.144;19.666;2023-08-07T02:08:04;0.40;;;0.20;;
69716;SDS011;67420;46.144;19.666;2023-08-07T02:18:06;0.40;;;0.40;;
69716;SDS011;67420;46.144;19.666;2023-08-07T02:28:09;0.20;;;0.20;;
69716;SDS011;67420;46.144;19.666;2023-08-07T02:38:11;0.30;;;0.30;;
69716;SDS011;67420;46.144;19.666;2023-08-07T02:48:12;0.20;;;0.20;;
69716;SDS011;67420;46.144;19.666;2023-08-07T02:58:15;0.20;;;0.20;;
69716;SDS011;67420;46.144;19.666;2023-08-07T03:08:17;0.50;;;0.30;;
69716;SDS011;67420;46.144;19.666;2023-08-07T03:18:19;0.20;;;0.20;;
69716;SDS011;67420;46.144;19.666;2023-08-07T03:28:21;0.20;;;0.20;;
69716;SDS011;67420;46.144;19.666;2023-08-07T03:38:23;0.30;;;0.30;;
69716;SDS011;67420;46.144;19.666;2023-08-07T03:48:25;0.38;;;0.35;;
69716;SDS011;67420;46.144;19.666;2023-08-07T03:58:28;3.60;;;0.32;;
69716;SDS011;67420;46.144;19.666;2023-08-07T04:08:30;0.22;;;0.20;;
69716;SDS011;67420;46.144;19.666;2023-08-07T04:18:32;0.50;;;0.30;;
69716;SDS011;67420;46.144;19.666;2023-08-07T04:28:35;0.20;;;0.20;;
69716;SDS011;67420;46.144;19.666;2023-08-07T04:38:37;0.55;;;0.20;;
69716;SDS011;67420;46.144;19.666;2023-08-07T04:48:39;0.85;;;0.50;;
69716;SDS011;67420;46.144;19.666;2023-08-07T04:58:41;0.85;;;0.30;;
69716;SDS011;67420;46.144;19.666;2023-08-07T05:08:43;1.48;;;0.35;;
69716;SDS011;67420;46.144;19.666;2023-08-07T05:18:46;0.60;;;0.30;;
69716;SDS011;67420;46.144;19.666;2023-08-07T05:28:52;2.58;;;0.40;;
69716;SDS011;67420;46.144;19.666;2023-08-07T05:38:56;0.17;;;0.17;;
69716;SDS011;67420;46.144;19.666;2023-08-07T05:48:58;0.30;;;0.30;;
69716;SDS011;67420;46.144;19.666;2023-08-07T05:59:00;1.23;;;0.30;;
69716;SDS011;67420;46.144;19.666;2023-08-07T06:09:02;1.95;;;0.30;;
69716;SDS011;67420;46.144;19.666;2023-08-07T06:19:05;3.13;;;0.32;;
69716;SDS011;67420;46.144;19.666;2023-08-07T06:29:26;0.90;;;0.35;;
69716;SDS011;67420;46.144;19.666;2023-08-07T06:39:28;0.20;;;0.20;;
69716;SDS011;67420;46.144;19.666;2023-08-07T06:49:31;0.45;;;0.40;;
69716;SDS011;67420;46.144;19.666;2023-08-07T06:59:34;0.30;;;0.30;;
69716;SDS011;67420;46.144;19.666;2023-08-07T07:09:36;0.43;;;0.35;;
69716;SDS011;67420;46.144;19.666;2023-08-07T07:19:37;0.20;;;0.20;;
69716;SDS011;67420;46.144;19.666;2023-08-07T07:29:40;2.17;;;0.28;;
69716;SDS011;67420;46.144;19.666;2023-08-07T07:39:42;0.22;;;0.20;;
69716;SDS011;67420;46.144;19.666;2023-08-07T07:49:45;0.60;;;0.30;;
69716;SDS011;67420;46.144;19.666;2023-08-07T07:59:51;2.90;;;0.38;;
69716;SDS011;67420;46.144;19.666;2023-08-07T08:09:53;0.60;;;0.20;;
69716;SDS011;67420;46.144;19.666;2023-08-07T08:19:55;0.35;;;0.35;;
69716;SDS011;67420;46.144;19.666;2023-08-07T08:29:58;0.22;;;0.20;;
69716;SDS011;67420;46.144;19.666;2023-08-07T08:40:00;0.70;;;0.32;;
69716;SDS011;67420;46.144;19.666;2023-08-07T08:50:10;0.10;;;0.10;;
69716;SDS011;67420;46.144;19.666;2023-08-07T09:00:14;0.35;;;0.10;;
69716;SDS011;67420;46.144;19.666;2023-08-07T09:10:19;0.20;;;0.20;;
69716;SDS011;67420;46.144;19.666;2023-08-07T09:20:22;0.35;;;0.20;;
69716;SDS011;67420;46.144;19.666;2023-08-07T09:30:28;0.52;;;0.25;;
69716;SDS011;67420;46.144;19.666;2023-08-07T09:40:31;0.55;;;0.25;;
69716;SDS011;67420;46.144;19.666;2023-08-07T09:50:33;0.28;;;0.28;;
69716;SDS011;67420;46.144;19.666;2023-08-07T10:00:36;0.20;;;0.20;;
69716;SDS011;67420;46.144;19.666;2023-08-07T10:10:39;0.55;;;0.20;;
69716;SDS011;67420;46.144;19.666;2023-08-07T10:20:42;0.52;;;0.20;;
69716;SDS011;67420;46.144;19.666;2023-08-07T10:30:45;0.20;;;0.10;;
69716;SDS011;67420;46.144;19.666;2023-08-07T10:41:09;0.10;;;0.10;;
69716;SDS011;67420;46.144;19.666;2023-08-07T10:51:17;0.10;;;0.10;;
69716;SDS011;67420;46.144;19.666;2023-08-07T11:11:24;0.10;;;0.10;;
69716;SDS011;67420;46.144;19.666;2023-08-07T11:21:26;0.32;;;0.17;;
69716;SDS011;67420;46.144;19.666;2023-08-07T11:31:30;0.40;;;0.20;;
69716;SDS011;67420;46.144;19.666;2023-08-07T11:41:32;0.20;;;0.10;;
69716;SDS011;67420;46.144;19.666;2023-08-07T11:51:34;0.15;;;0.05;;
69716;SDS011;67420;46.144;19.666;2023-08-07T12:01:39;0.20;;;0.20;;
69716;SDS011;67420;46.144;19.666;2023-08-07T12:11:42;0.20;;;0.20;;
69716;SDS011;67420;46.144;19.666;2023-08-07T12:21:44;0.10;;;0.10;;
69716;SDS011;67420;46.144;19.666;2023-08-07T12:31:47;0.20;;;0.20;;
69716;SDS011;67420;46.144;19.666;2023-08-07T12:41:48;0.55;;;0.20;;
69716;SDS011;67420;46.144;19.666;2023-08-07T12:52:11;0.38;;;0.10;;
69716;SDS011;67420;46.144;19.666;2023-08-07T13:02:13;0.35;;;0.20;;
69716;SDS011;67420;46.144;19.666;2023-08-07T13:12:15;1.00;;;0.20;;
69716;SDS011;67420;46.144;19.666;2023-08-07T13:22:21;0.43;;;0.20;;
69716;SDS011;67420;46.144;19.666;2023-08-07T13:32:23;1.15;;;0.30;;
69716;SDS011;67420;46.144;19.666;2023-08-07T13:42:27;7.43;;;3.63;;
69716;SDS011;67420;46.144;19.666;2023-08-07T13:52:29;5.63;;;2.10;;
69716;SDS011;67420;46.144;19.666;2023-08-07T14:12:58;7.03;;;1.65;;
69716;SDS011;67420;46.144;19.666;2023-08-07T14:23:00;9.50;;;1.27;;
69716;SDS011;67420;46.144;19.666;2023-08-07T14:33:17;2.78;;;1.05;;
69716;SDS011;67420;46.144;19.666;2023-08-07T14:43:19;8.90;;;0.93;;
69716;SDS011;67420;46.144;19.666;2023-08-07T14:53:21;2.88;;;0.73;;
69716;SDS011;67420;46.144;19.666;2023-08-07T15:03:23;1.95;;;0.50;;
69716;SDS011;67420;46.144;19.666;2023-08-07T15:13:25;5.07;;;0.63;;
69716;SDS011;67420;46.144;19.666;2023-08-07T15:23:27;5.20;;;0.55;;
69716;SDS011;67420;46.144;19.666;2023-08-07T15:33:29;3.03;;;0.65;;
69716;SDS011;67420;46.144;19.666;2023-08-07T15:43:31;0.50;;;0.40;;
69716;SDS011;67420;46.144;19.666;2023-08-07T15:53:33;1.15;;;0.30;;
69716;SDS011;67420;46.144;19.666;2023-08-07T16:03:35;1.08;;;0.32;;
69716;SDS011;67420;46.144;19.666;2023-08-07T16:13:38;5.75;;;0.40;;
69716;SDS011;67420;46.144;19.666;2023-08-07T16:23:40;0.98;;;0.32;;
69716;SDS011;67420;46.144;19.666;2023-08-07T16:33:43;1.83;;;0.38;;
69716;SDS011;67420;46.144;19.666;2023-08-07T16:43:45;4.32;;;0.50;;
69716;SDS011;67420;46.144;19.666;2023-08-07T16:53:47;1.70;;;0.43;;
69716;SDS011;67420;46.144;19.666;2023-08-07T17:03:49;2.58;;;0.82;;
69716;SDS011;67420;46.144;19.666;2023-08-07T17:13:51;1.98;;;0.40;;
69716;SDS011;67420;46.144;19.666;2023-08-07T17:23:54;0.95;;;0.32;;
69716;SDS011;67420;46.144;19.666;2023-08-07T17:33:56;1.35;;;0.30;;
69716;SDS011;67420;46.144;19.666;2023-08-07T17:43:58;1.50;;;0.47;;
69716;SDS011;67420;46.144;19.666;2023-08-07T17:54:00;1.63;;;0.35;;
69716;SDS011;67420;46.144;19.666;2023-08-07T18:04:02;4.95;;;0.50;;
69716;SDS011;67420;46.144;19.666;2023-08-07T18:14:05;1.20;;;0.40;;
69716;SDS011;67420;46.144;19.666;2023-08-07T18:24:07;1.75;;;0.30;;
69716;SDS011;67420;46.144;19.666;2023-08-07T18:34:09;1.88;;;0.40;;
69716;SDS011;67420;46.144;19.666;2023-08-07T18:44:14;4.50;;;0.47;;
69716;SDS011;67420;46.144;19.666;2023-08-07T18:54:16;5.03;;;0.68;;
69716;SDS011;67420;46.144;19.666;2023-08-07T19:04:17;0.52;;;0.22;;
69716;SDS011;67420;46.144;19.666;2023-08-07T19:14:20;2.45;;;0.55;;
69716;SDS011;67420;46.144;19.666;2023-08-07T19:24:22;2.28;;;0.40;;
69716;SDS011;67420;46.144;19.666;2023-08-07T19:34:24;3.17;;;0.47;;
69716;SDS011;67420;46.144;19.666;2023-08-07T19:44:26;0.35;;;0.30;;
69716;SDS011;67420;46.144;19.666;2023-08-07T19:54:28;9.02;;;0.70;;
69716;SDS011;67420;46.144;19.666;2023-08-07T20:04:30;5.47;;;0.70;;
69716;SDS011;67420;46.144;19.666;2023-08-07T20:14:33;5.10;;;0.60;;
69716;SDS011;67420;46.144;19.666;2023-08-07T20:24:38;2.53;;;0.77;;
69716;SDS011;67420;46.144;19.666;2023-08-07T20:34:40;3.45;;;0.60;;
69716;SDS011;67420;46.144;19.666;2023-08-07T20:44:43;3.95;;;0.77;;
69716;SDS011;67420;46.144;19.666;2023-08-07T20:54:45;5.57;;;0.68;;
69716;SDS011;67420;46.144;19.666;2023-08-07T21:04:47;4.03;;;0.73;;
69716;SDS011;67420;46.144;19.666;2023-08-07T21:14:50;4.20;;;0.85;;
69716;SDS011;67420;46.144;19.666;2023-08-07T21:24:52;6.70;;;0.77;;
69716;SDS011;67420;46.144;19.666;2023-08-07T21:34:56;2.53;;;0.73;;
69716;SDS011;67420;46.144;19.666;2023-08-07T21:44:58;4.20;;;0.52;;
69716;SDS011;67420;46.144;19.666;2023-08-07T21:55:00;1.92;;;0.65;;
69716;SDS011;67420;46.144;19.666;2023-08-07T22:12:59;1.35;;;0.55;;
69716;SDS011;67420;46.144;19.666;2023-08-07T22:23:01;0.85;;;0.60;;
69716;SDS011;67420;46.144;19.666;2023-08-07T22:33:03;2.97;;;0.40;;
69716;SDS011;67420;46.144;19.666;2023-08-07T22:43:05;1.35;;;0.50;;
69716;SDS011;67420;46.144;19.666;2023-08-07T22:53:11;5.30;;;0.57;;
69716;SDS011;67420;46.144;19.666;2023-08-07T23:03:12;0.60;;;0.30;;
69716;SDS011;67420;46.144;19.666;2023-08-07T23:13:15;2.40;;;0.60;;
69716;SDS011;67420;46.144;19.666;2023-08-07T23:23:17;1.48;;;0.40;;
69716;SDS011;67420;46.144;19.666;2023-08-07T23:33:19;0.98;;;0.40;;
69716;SDS011;67420;46.144;19.666;2023-08-07T23:43:21;0.38;;;0.30;;
69716;SDS011;67420;46.144;19.666;2023-08-07T23:53:23;1.80;;;0.50;;
